KHOB/HOB METAR and TAF weather

Enter ICAO airport designator
Station Type Date Time Source
KHOB METAR 2020/07/10 21:50 UTC NOAA

KHOB 102150Z 19006KT 10SM SKC 40/05 A3005


Station Type Date Time Source
KHOB Decoded METAR 2020/07/10 21:50 UTC NOAA

Hobbs / Lea County, NM, United States (KHOB) 32-41N 103-13W
Jul 10, 2020 - 05:50 PM EDT / 2020.07.10 2150 UTC
Wind: from the S (190 degrees) at 7 MPH (6 KT):0
Visibility: 10 mile(s):0
Sky conditions: clear
Temperature: 104 F (40 C)
Dew Point: 41 F (5 C)
Relative Humidity: 11%
Pressure (altimeter): 30.05 in. Hg (1017 hPa)
ob: KHOB 102150Z 19006KT 10SM SKC 40/05 A3005
cycle: 22

Station Type Date Time Source
KHOB TAF 2020/07/10 18:33 UTC NOAA

TAF KHOB 101731Z 1018/1118 17010KT P6SM FEW200

Example: see airport list